sensor_id;sensor_type;location;lat;lon;timestamp;pressure;altitude;pressure_sealevel;temperature;humidity
18022;BME280;9136;48.822;7.966;2023-03-26T00:01:40;99796.84;;;9.53;100.00
18022;BME280;9136;48.822;7.966;2023-03-26T00:04:32;99773.19;;;9.29;100.00
18022;BME280;9136;48.822;7.966;2023-03-26T00:07:20;99785.75;;;9.44;100.00
18022;BME280;9136;48.822;7.966;2023-03-26T00:10:08;99769.47;;;9.36;100.00
18022;BME280;9136;48.822;7.966;2023-03-26T00:12:56;99785.66;;;9.48;100.00
18022;BME280;9136;48.822;7.966;2023-03-26T00:15:44;99766.06;;;9.33;100.00
18022;BME280;9136;48.822;7.966;2023-03-26T00:18:33;99764.25;;;9.35;100.00
18022;BME280;9136;48.822;7.966;2023-03-26T00:21:23;99772.22;;;9.32;100.00
18022;BME280;9136;48.822;7.966;2023-03-26T00:24:12;99790.38;;;9.38;100.00
18022;BME280;9136;48.822;7.966;2023-03-26T00:27:01;99756.94;;;9.20;100.00
18022;BME280;9136;48.822;7.966;2023-03-26T00:29:49;99764.63;;;9.24;100.00
18022;BME280;9136;48.822;7.966;2023-03-26T00:32:37;99763.56;;;9.30;100.00
18022;BME280;9136;48.822;7.966;2023-03-26T00:35:26;99765.56;;;9.48;100.00
18022;BME280;9136;48.822;7.966;2023-03-26T00:38:15;99768.16;;;9.48;100.00
18022;BME280;9136;48.822;7.966;2023-03-26T00:41:04;99763.94;;;9.44;100.00
18022;BME280;9136;48.822;7.966;2023-03-26T00:43:54;99768.66;;;9.59;100.00
18022;BME280;9136;48.822;7.966;2023-03-26T00:46:43;99754.88;;;9.53;100.00
18022;BME280;9136;48.822;7.966;2023-03-26T00:49:32;99752.53;;;9.45;100.00
18022;BME280;9136;48.822;7.966;2023-03-26T00:52:22;99732.72;;;9.38;100.00
18022;BME280;9136;48.822;7.966;2023-03-26T00:55:10;99736.91;;;9.42;100.00
18022;BME280;9136;48.822;7.966;2023-03-26T00:57:58;99727.34;;;9.41;100.00
18022;BME280;9136;48.822;7.966;2023-03-26T01:00:50;99735.81;;;9.49;100.00
18022;BME280;9136;48.822;7.966;2023-03-26T01:03:38;99728.91;;;9.46;100.00
18022;BME280;9136;48.822;7.966;2023-03-26T01:06:28;99736.47;;;9.54;100.00
18022;BME280;9136;48.822;7.966;2023-03-26T01:09:21;99724.53;;;9.47;100.00
18022;BME280;9136;48.822;7.966;2023-03-26T01:12:13;99714.69;;;9.29;100.00
18022;BME280;9136;48.822;7.966;2023-03-26T01:15:03;99702.50;;;9.28;100.00
18022;BME280;9136;48.822;7.966;2023-03-26T01:17:53;99711.41;;;9.22;100.00
18022;BME280;9136;48.822;7.966;2023-03-26T01:20:44;99691.94;;;9.04;100.00
18022;BME280;9136;48.822;7.966;2023-03-26T01:23:39;99684.25;;;9.00;100.00
18022;BME280;9136;48.822;7.966;2023-03-26T01:26:57;99675.69;;;8.95;100.00
18022;BME280;9136;48.822;7.966;2023-03-26T01:29:52;99696.34;;;9.04;100.00
18022;BME280;9136;48.822;7.966;2023-03-26T01:32:49;99669.47;;;8.99;100.00
18022;BME280;9136;48.822;7.966;2023-03-26T01:35:44;99678.38;;;9.18;100.00
18022;BME280;9136;48.822;7.966;2023-03-26T01:38:39;99658.88;;;9.25;100.00
18022;BME280;9136;48.822;7.966;2023-03-26T01:41:37;99673.16;;;9.41;100.00
18022;BME280;9136;48.822;7.966;2023-03-26T01:44:32;99655.19;;;9.31;100.00
18022;BME280;9136;48.822;7.966;2023-03-26T01:47:21;99633.59;;;9.24;100.00
18022;BME280;9136;48.822;7.966;2023-03-26T01:50:09;99619.47;;;9.28;100.00
18022;BME280;9136;48.822;7.966;2023-03-26T01:52:57;99617.41;;;9.13;100.00
18022;BME280;9136;48.822;7.966;2023-03-26T01:55:51;99627.31;;;9.05;100.00
18022;BME280;9136;48.822;7.966;2023-03-26T01:58:50;99609.28;;;8.96;100.00
18022;BME280;9136;48.822;7.966;2023-03-26T02:01:46;99623.63;;;9.10;100.00
18022;BME280;9136;48.822;7.966;2023-03-26T02:04:44;99603.00;;;9.01;100.00
18022;BME280;9136;48.822;7.966;2023-03-26T02:07:37;99596.31;;;8.93;100.00
18022;BME280;9136;48.822;7.966;2023-03-26T02:10:31;99590.50;;;8.84;100.00
18022;BME280;9136;48.822;7.966;2023-03-26T02:13:21;99606.97;;;8.88;100.00
18022;BME280;9136;48.822;7.966;2023-03-26T02:16:11;99589.84;;;8.78;100.00
18022;BME280;9136;48.822;7.966;2023-03-26T02:19:03;99588.31;;;8.72;100.00
18022;BME280;9136;48.822;7.966;2023-03-26T02:21:50;99579.81;;;8.66;100.00
18022;BME280;9136;48.822;7.966;2023-03-26T02:24:38;99586.56;;;8.73;100.00
18022;BME280;9136;48.822;7.966;2023-03-26T02:27:26;99587.22;;;8.78;100.00
18022;BME280;9136;48.822;7.966;2023-03-26T02:30:16;99542.78;;;8.76;100.00
18022;BME280;9136;48.822;7.966;2023-03-26T02:33:04;99538.00;;;8.87;100.00
18022;BME280;9136;48.822;7.966;2023-03-26T02:35:55;99542.88;;;8.98;100.00
18022;BME280;9136;48.822;7.966;2023-03-26T02:38:44;99554.53;;;9.13;100.00
18022;BME280;9136;48.822;7.966;2023-03-26T02:41:32;99539.03;;;9.07;100.00
18022;BME280;9136;48.822;7.966;2023-03-26T02:44:20;99537.03;;;9.13;100.00
18022;BME280;9136;48.822;7.966;2023-03-26T02:47:08;99539.03;;;9.07;100.00
18022;BME280;9136;48.822;7.966;2023-03-26T02:49:56;99515.84;;;8.96;100.00
18022;BME280;9136;48.822;7.966;2023-03-26T02:52:45;99507.53;;;8.85;100.00
18022;BME280;9136;48.822;7.966;2023-03-26T02:55:35;99529.53;;;9.04;100.00
18022;BME280;9136;48.822;7.966;2023-03-26T02:58:23;99516.69;;;8.98;100.00
18022;BME280;9136;48.822;7.966;2023-03-26T03:01:11;99521.00;;;8.99;100.00
18022;BME280;9136;48.822;7.966;2023-03-26T03:04:03;99527.69;;;9.06;100.00
18022;BME280;9136;48.822;7.966;2023-03-26T03:06:51;99500.84;;;9.01;100.00
18022;BME280;9136;48.822;7.966;2023-03-26T03:09:44;99529.13;;;9.15;100.00
18022;BME280;9136;48.822;7.966;2023-03-26T03:12:32;99474.13;;;8.92;100.00
18022;BME280;9136;48.822;7.966;2023-03-26T03:15:20;99480.22;;;8.92;100.00
18022;BME280;9136;48.822;7.966;2023-03-26T03:18:08;99467.06;;;8.94;100.00
18022;BME280;9136;48.822;7.966;2023-03-26T03:20:55;99481.56;;;9.02;100.00
18022;BME280;9136;48.822;7.966;2023-03-26T03:23:43;99484.00;;;9.07;100.00
18022;BME280;9136;48.822;7.966;2023-03-26T03:26:33;99473.31;;;9.13;100.00
18022;BME280;9136;48.822;7.966;2023-03-26T03:29:21;99454.47;;;9.03;100.00
18022;BME280;9136;48.822;7.966;2023-03-26T03:32:09;99449.34;;;9.00;100.00
18022;BME280;9136;48.822;7.966;2023-03-26T03:34:57;99458.78;;;9.04;100.00
18022;BME280;9136;48.822;7.966;2023-03-26T03:37:45;99464.94;;;9.03;100.00
18022;BME280;9136;48.822;7.966;2023-03-26T03:40:33;99437.53;;;8.90;100.00
18022;BME280;9136;48.822;7.966;2023-03-26T03:43:22;99441.06;;;8.89;100.00
18022;BME280;9136;48.822;7.966;2023-03-26T03:46:12;99450.34;;;8.98;100.00
18022;BME280;9136;48.822;7.966;2023-03-26T03:49:01;99427.66;;;8.97;100.00
18022;BME280;9136;48.822;7.966;2023-03-26T03:51:49;99447.47;;;9.04;100.00
18022;BME280;9136;48.822;7.966;2023-03-26T03:54:36;99414.81;;;8.91;100.00
18022;BME280;9136;48.822;7.966;2023-03-26T03:57:24;99417.28;;;8.94;100.00
18022;BME280;9136;48.822;7.966;2023-03-26T04:00:16;99412.84;;;8.96;100.00
18022;BME280;9136;48.822;7.966;2023-03-26T04:03:04;99408.44;;;8.98;100.00
18022;BME280;9136;48.822;7.966;2023-03-26T04:05:52;99400.06;;;8.88;100.00
18022;BME280;9136;48.822;7.966;2023-03-26T04:08:42;99403.28;;;8.95;100.00
18022;BME280;9136;48.822;7.966;2023-03-26T04:11:29;99383.97;;;8.97;100.00
18022;BME280;9136;48.822;7.966;2023-03-26T04:14:17;99373.56;;;8.96;100.00
18022;BME280;9136;48.822;7.966;2023-03-26T04:17:08;99370.03;;;8.97;100.00
18022;BME280;9136;48.822;7.966;2023-03-26T04:19:58;99363.06;;;8.96;100.00
18022;BME280;9136;48.822;7.966;2023-03-26T04:22:55;99331.28;;;8.83;100.00
18022;BME280;9136;48.822;7.966;2023-03-26T04:25:45;99331.44;;;8.80;100.00
18022;BME280;9136;48.822;7.966;2023-03-26T04:28:38;99377.56;;;8.82;100.00
18022;BME280;9136;48.822;7.966;2023-03-26T04:31:31;99362.16;;;8.75;100.00
18022;BME280;9136;48.822;7.966;2023-03-26T04:34:23;99337.03;;;8.71;100.00
18022;BME280;9136;48.822;7.966;2023-03-26T04:37:16;99343.91;;;8.73;100.00
18022;BME280;9136;48.822;7.966;2023-03-26T04:40:10;99338.72;;;8.72;100.00
18022;BME280;9136;48.822;7.966;2023-03-26T04:42:58;99367.72;;;8.89;100.00
18022;BME280;9136;48.822;7.966;2023-03-26T04:45:47;99334.56;;;8.66;100.00
18022;BME280;9136;48.822;7.966;2023-03-26T04:48:36;99327.28;;;8.74;100.00
18022;BME280;9136;48.822;7.966;2023-03-26T04:51:32;99329.72;;;8.79;100.00
18022;BME280;9136;48.822;7.966;2023-03-26T04:54:23;99326.56;;;8.71;100.00
18022;BME280;9136;48.822;7.966;2023-03-26T04:57:15;99305.25;;;8.80;100.00
18022;BME280;9136;48.822;7.966;2023-03-26T05:00:07;99290.47;;;8.77;100.00
18022;BME280;9136;48.822;7.966;2023-03-26T05:03:01;99277.66;;;8.71;100.00
18022;BME280;9136;48.822;7.966;2023-03-26T05:05:48;99273.91;;;8.77;100.00
18022;BME280;9136;48.822;7.966;2023-03-26T05:08:38;99274.53;;;8.83;100.00
18022;BME280;9136;48.822;7.966;2023-03-26T05:11:27;99263.03;;;8.66;100.00
18022;BME280;9136;48.822;7.966;2023-03-26T05:14:15;99266.25;;;8.72;100.00
18022;BME280;9136;48.822;7.966;2023-03-26T05:17:03;99270.66;;;8.72;100.00
18022;BME280;9136;48.822;7.966;2023-03-26T05:19:51;99262.72;;;8.73;100.00
18022;BME280;9136;48.822;7.966;2023-03-26T05:22:39;99221.06;;;8.67;100.00
18022;BME280;9136;48.822;7.966;2023-03-26T05:25:29;99239.66;;;8.83;100.00
18022;BME280;9136;48.822;7.966;2023-03-26T05:28:16;99231.19;;;8.97;100.00
18022;BME280;9136;48.822;7.966;2023-03-26T05:31:06;99211.53;;;8.86;100.00
18022;BME280;9136;48.822;7.966;2023-03-26T05:33:54;99205.47;;;8.86;100.00
18022;BME280;9136;48.822;7.966;2023-03-26T05:36:42;99236.06;;;9.06;100.00
18022;BME280;9136;48.822;7.966;2023-03-26T05:39:30;99208.94;;;8.86;100.00
18022;BME280;9136;48.822;7.966;2023-03-26T05:42:20;99210.97;;;8.80;100.00
18022;BME280;9136;48.822;7.966;2023-03-26T05:45:10;99204.28;;;8.73;100.00
18022;BME280;9136;48.822;7.966;2023-03-26T05:47:58;99190.31;;;8.52;100.00
18022;BME280;9136;48.822;7.966;2023-03-26T05:50:47;99198.34;;;8.47;100.00
18022;BME280;9136;48.822;7.966;2023-03-26T05:53:35;99216.66;;;8.47;100.00
18022;BME280;9136;48.822;7.966;2023-03-26T05:56:22;99194.91;;;8.23;100.00
18022;BME280;9136;48.822;7.966;2023-03-26T05:59:13;99201.13;;;8.21;100.00
18022;BME280;9136;48.822;7.966;2023-03-26T06:02:01;99189.06;;;8.17;100.00
18022;BME280;9136;48.822;7.966;2023-03-26T06:04:48;99186.75;;;8.09;100.00
18022;BME280;9136;48.822;7.966;2023-03-26T06:07:36;99167.09;;;7.99;100.00
18022;BME280;9136;48.822;7.966;2023-03-26T06:10:24;99155.56;;;8.04;100.00
18022;BME280;9136;48.822;7.966;2023-03-26T06:13:12;99157.81;;;8.14;100.00
18022;BME280;9136;48.822;7.966;2023-03-26T06:16:03;99169.59;;;8.24;100.00
18022;BME280;9136;48.822;7.966;2023-03-26T06:18:50;99169.66;;;8.22;100.00
18022;BME280;9136;48.822;7.966;2023-03-26T06:21:39;99161.28;;;8.14;100.00
18022;BME280;9136;48.822;7.966;2023-03-26T06:24:27;99149.97;;;7.92;100.00
18022;BME280;9136;48.822;7.966;2023-03-26T06:27:15;99160.00;;;8.02;100.00
18022;BME280;9136;48.822;7.966;2023-03-26T06:30:04;99151.88;;;8.09;100.00
18022;BME280;9136;48.822;7.966;2023-03-26T06:32:54;99140.78;;;8.03;100.00
18022;BME280;9136;48.822;7.966;2023-03-26T06:35:42;99137.88;;;8.11;100.00
18022;BME280;9136;48.822;7.966;2023-03-26T06:38:30;99143.19;;;8.08;100.00
18022;BME280;9136;48.822;7.966;2023-03-26T06:41:18;99136.88;;;7.92;100.00
18022;BME280;9136;48.822;7.966;2023-03-26T06:44:06;99138.53;;;7.94;100.00
18022;BME280;9136;48.822;7.966;2023-03-26T06:46:54;99142.63;;;8.00;100.00
18022;BME280;9136;48.822;7.966;2023-03-26T06:49:43;99122.84;;;7.94;100.00
18022;BME280;9136;48.822;7.966;2023-03-26T06:52:31;99123.47;;;7.99;100.00
18022;BME280;9136;48.822;7.966;2023-03-26T06:55:19;99094.13;;;7.93;100.00
18022;BME280;9136;48.822;7.966;2023-03-26T06:58:10;99112.78;;;8.06;100.00
18022;BME280;9136;48.822;7.966;2023-03-26T07:00:58;99099.09;;;7.99;100.00
18022;BME280;9136;48.822;7.966;2023-03-26T07:03:46;99081.91;;;7.93;100.00
18022;BME280;9136;48.822;7.966;2023-03-26T07:06:35;99069.84;;;7.89;100.00
18022;BME280;9136;48.822;7.966;2023-03-26T07:09:23;99067.00;;;7.95;100.00
18022;BME280;9136;48.822;7.966;2023-03-26T07:12:15;99067.41;;;8.07;100.00
18022;BME280;9136;48.822;7.966;2023-03-26T07:15:05;99072.47;;;8.11;100.00
18022;BME280;9136;48.822;7.966;2023-03-26T07:17:53;99057.88;;;8.06;100.00
18022;BME280;9136;48.822;7.966;2023-03-26T07:20:43;99039.94;;;7.96;100.00
18022;BME280;9136;48.822;7.966;2023-03-26T07:23:33;99039.63;;;8.04;100.00
18022;BME280;9136;48.822;7.966;2023-03-26T07:26:28;99043.34;;;7.98;100.00
18022;BME280;9136;48.822;7.966;2023-03-26T07:29:26;99052.72;;;8.04;100.00
18022;BME280;9136;48.822;7.966;2023-03-26T07:32:23;99035.31;;;7.81;100.00
18022;BME280;9136;48.822;7.966;2023-03-26T07:35:17;99040.69;;;7.78;100.00
18022;BME280;9136;48.822;7.966;2023-03-26T07:38:20;99052.09;;;7.97;100.00
18022;BME280;9136;48.822;7.966;2023-03-26T07:41:16;99028.28;;;7.83;100.00
18022;BME280;9136;48.822;7.966;2023-03-26T07:44:29;99049.47;;;7.97;100.00
18022;BME280;9136;48.822;7.966;2023-03-26T07:47:23;99066.31;;;7.90;100.00
18022;BME280;9136;48.822;7.966;2023-03-26T07:50:14;99060.09;;;7.72;100.00
18022;BME280;9136;48.822;7.966;2023-03-26T07:53:03;99080.88;;;7.97;100.00
18022;BME280;9136;48.822;7.966;2023-03-26T07:55:54;99077.94;;;8.05;100.00
18022;BME280;9136;48.822;7.966;2023-03-26T07:59:04;99057.19;;;8.00;100.00
18022;BME280;9136;48.822;7.966;2023-03-26T08:02:03;99057.09;;;8.03;100.00
18022;BME280;9136;48.822;7.966;2023-03-26T08:05:08;99072.03;;;8.00;100.00
18022;BME280;9136;48.822;7.966;2023-03-26T08:08:11;99050.63;;;7.90;100.00
18022;BME280;9136;48.822;7.966;2023-03-26T08:11:29;99043.34;;;7.98;100.00
18022;BME280;9136;48.822;7.966;2023-03-26T08:14:45;99061.72;;;8.39;100.00
18022;BME280;9136;48.822;7.966;2023-03-26T08:17:37;99067.63;;;8.65;100.00
18022;BME280;9136;48.822;7.966;2023-03-26T08:20:33;99063.28;;;8.84;100.00
18022;BME280;9136;48.822;7.966;2023-03-26T08:23:27;99074.63;;;9.03;100.00
18022;BME280;9136;48.822;7.966;2023-03-26T08:26:22;99053.06;;;8.98;100.00
18022;BME280;9136;48.822;7.966;2023-03-26T08:29:19;99032.28;;;8.94;100.00
18022;BME280;9136;48.822;7.966;2023-03-26T08:32:15;99050.03;;;9.07;100.00
18022;BME280;9136;48.822;7.966;2023-03-26T08:35:04;99061.56;;;9.22;100.00
18022;BME280;9136;48.822;7.966;2023-03-26T08:37:52;99062.84;;;9.51;100.00
18022;BME280;9136;48.822;7.966;2023-03-26T08:48:07;99032.53;;;9.27;100.00
18022;BME280;9136;48.822;7.966;2023-03-26T08:55:10;99023.25;;;9.74;100.00
18022;BME280;9136;48.822;7.966;2023-03-26T09:01:53;99054.38;;;10.36;100.00
18022;BME280;9136;48.822;7.966;2023-03-26T09:05:31;99059.31;;;10.24;100.00
18022;BME280;9136;48.822;7.966;2023-03-26T09:08:56;99058.88;;;10.34;100.00
18022;BME280;9136;48.822;7.966;2023-03-26T09:12:33;99035.06;;;10.54;100.00
18022;BME280;9136;48.822;7.966;2023-03-26T09:19:32;99052.31;;;10.93;100.00
18022;BME280;9136;48.822;7.966;2023-03-26T09:22:57;99062.72;;;11.43;100.00
18022;BME280;9136;48.822;7.966;2023-03-26T09:26:03;99058.22;;;11.45;100.00
18022;BME280;9136;48.822;7.966;2023-03-26T09:36:18;99054.16;;;11.39;100.00
18022;BME280;9136;48.822;7.966;2023-03-26T09:39:16;99034.56;;;11.29;100.00
18022;BME280;9136;48.822;7.966;2023-03-26T09:42:10;99055.25;;;11.67;100.00
18022;BME280;9136;48.822;7.966;2023-03-26T09:45:24;99057.19;;;11.47;100.00
18022;BME280;9136;48.822;7.966;2023-03-26T09:49:00;99053.59;;;11.82;100.00
18022;BME280;9136;48.822;7.966;2023-03-26T09:52:05;99039.97;;;11.58;100.00
18022;BME280;9136;48.822;7.966;2023-03-26T09:55:11;99054.75;;;12.08;100.00
18022;BME280;9136;48.822;7.966;2023-03-26T10:01:40;99068.59;;;12.25;100.00
18022;BME280;9136;48.822;7.966;2023-03-26T10:04:39;99050.09;;;11.97;100.00
18022;BME280;9136;48.822;7.966;2023-03-26T10:07:44;99072.22;;;11.77;100.00
18022;BME280;9136;48.822;7.966;2023-03-26T10:10:42;99055.63;;;11.61;100.00
18022;BME280;9136;48.822;7.966;2023-03-26T10:13:41;99066.53;;;11.37;100.00
18022;BME280;9136;48.822;7.966;2023-03-26T10:16:43;99065.19;;;11.30;100.00
18022;BME280;9136;48.822;7.966;2023-03-26T10:19:51;99079.44;;;11.09;100.00
18022;BME280;9136;48.822;7.966;2023-03-26T10:22:50;99058.91;;;11.00;100.00
18022;BME280;9136;48.822;7.966;2023-03-26T10:25:50;99065.16;;;11.14;100.00
18022;BME280;9136;48.822;7.966;2023-03-26T10:28:58;99073.66;;;11.35;100.00
18022;BME280;9136;48.822;7.966;2023-03-26T10:31:58;99065.00;;;11.65;100.00
18022;BME280;9136;48.822;7.966;2023-03-26T10:35:01;99029.66;;;11.70;100.00
18022;BME280;9136;48.822;7.966;2023-03-26T10:38:03;99033.06;;;12.18;98.22
18022;BME280;9136;48.822;7.966;2023-03-26T10:41:11;99042.19;;;12.57;86.67
18022;BME280;9136;48.822;7.966;2023-03-26T10:44:20;99054.44;;;12.72;81.80
18022;BME280;9136;48.822;7.966;2023-03-26T10:47:42;99102.94;;;12.98;79.88
18022;BME280;9136;48.822;7.966;2023-03-26T10:50:51;99084.44;;;12.70;76.04
18022;BME280;9136;48.822;7.966;2023-03-26T10:53:45;99061.88;;;12.66;79.82
18022;BME280;9136;48.822;7.966;2023-03-26T10:56:39;99077.84;;;12.32;79.92
18022;BME280;9136;48.822;7.966;2023-03-26T10:59:28;99065.31;;;12.52;80.54
18022;BME280;9136;48.822;7.966;2023-03-26T11:02:26;99067.09;;;13.80;64.75
18022;BME280;9136;48.822;7.966;2023-03-26T11:05:25;99065.56;;;14.17;64.59
18022;BME280;9136;48.822;7.966;2023-03-26T11:08:24;99050.03;;;13.15;69.97
18022;BME280;9136;48.822;7.966;2023-03-26T11:11:22;99075.66;;;13.13;70.41
18022;BME280;9136;48.822;7.966;2023-03-26T11:14:16;99054.47;;;13.15;67.93
18022;BME280;9136;48.822;7.966;2023-03-26T11:17:14;99060.38;;;14.15;63.72
18022;BME280;9136;48.822;7.966;2023-03-26T11:20:12;99045.31;;;14.70;57.99
18022;BME280;9136;48.822;7.966;2023-03-26T11:23:12;99047.94;;;14.70;56.61
18022;BME280;9136;48.822;7.966;2023-03-26T11:26:07;99036.84;;;14.52;49.63
18022;BME280;9136;48.822;7.966;2023-03-26T11:29:06;99037.22;;;13.79;51.29
18022;BME280;9136;48.822;7.966;2023-03-26T11:32:04;99053.75;;;14.22;48.81
18022;BME280;9136;48.822;7.966;2023-03-26T11:34:58;99054.56;;;13.28;50.97
18022;BME280;9136;48.822;7.966;2023-03-26T11:37:52;99045.88;;;13.40;52.16
18022;BME280;9136;48.822;7.966;2023-03-26T11:40:43;99058.53;;;14.30;48.47
18022;BME280;9136;48.822;7.966;2023-03-26T11:43:35;99039.47;;;14.65;48.49
18022;BME280;9136;48.822;7.966;2023-03-26T11:46:25;99047.75;;;15.97;44.84
18022;BME280;9136;48.822;7.966;2023-03-26T11:49:17;99027.81;;;16.85;42.92
18022;BME280;9136;48.822;7.966;2023-03-26T11:52:05;99017.16;;;17.53;41.10
18022;BME280;9136;48.822;7.966;2023-03-26T11:54:54;98997.03;;;15.54;44.07
18022;BME280;9136;48.822;7.966;2023-03-26T11:57:50;99023.84;;;15.00;46.43
18022;BME280;9136;48.822;7.966;2023-03-26T12:00:40;99017.81;;;14.59;48.04
18022;BME280;9136;48.822;7.966;2023-03-26T12:03:30;98982.06;;;13.62;49.63
18022;BME280;9136;48.822;7.966;2023-03-26T12:06:24;98993.38;;;13.64;51.43
18022;BME280;9136;48.822;7.966;2023-03-26T12:09:15;98986.00;;;13.42;49.94
18022;BME280;9136;48.822;7.966;2023-03-26T12:12:05;98987.13;;;13.38;50.03
18022;BME280;9136;48.822;7.966;2023-03-26T12:14:54;99002.69;;;14.74;47.33
18022;BME280;9136;48.822;7.966;2023-03-26T12:17:42;98981.69;;;16.42;45.87
18022;BME280;9136;48.822;7.966;2023-03-26T12:20:33;99002.53;;;16.57;44.45
18022;BME280;9136;48.822;7.966;2023-03-26T12:23:41;99000.88;;;14.75;44.98
18022;BME280;9136;48.822;7.966;2023-03-26T12:26:39;98985.22;;;15.10;45.37
18022;BME280;9136;48.822;7.966;2023-03-26T12:29:29;98988.78;;;15.82;41.84
18022;BME280;9136;48.822;7.966;2023-03-26T12:32:19;98999.84;;;14.90;44.27
18022;BME280;9136;48.822;7.966;2023-03-26T12:35:15;98970.38;;;14.18;46.25
18022;BME280;9136;48.822;7.966;2023-03-26T12:38:22;98945.72;;;13.53;47.25
18022;BME280;9136;48.822;7.966;2023-03-26T12:41:13;98976.09;;;14.12;47.04
18022;BME280;9136;48.822;7.966;2023-03-26T12:44:21;98956.88;;;14.99;45.73
18022;BME280;9136;48.822;7.966;2023-03-26T12:47:15;98953.31;;;15.24;45.35
18022;BME280;9136;48.822;7.966;2023-03-26T12:50:05;98966.50;;;14.37;46.14
18022;BME280;9136;48.822;7.966;2023-03-26T12:53:01;98964.16;;;14.19;50.48
18022;BME280;9136;48.822;7.966;2023-03-26T12:55:58;98959.19;;;14.27;48.28
18022;BME280;9136;48.822;7.966;2023-03-26T12:59:05;98948.50;;;14.16;48.72
18022;BME280;9136;48.822;7.966;2023-03-26T13:02:14;98986.97;;;13.27;47.06
18022;BME280;9136;48.822;7.966;2023-03-26T13:05:23;98976.88;;;12.90;47.42
18022;BME280;9136;48.822;7.966;2023-03-26T13:11:50;98976.59;;;12.52;52.76
18022;BME280;9136;48.822;7.966;2023-03-26T13:14:54;98982.38;;;12.15;64.26
18022;BME280;9136;48.822;7.966;2023-03-26T13:17:55;98966.13;;;11.76;69.67
18022;BME280;9136;48.822;7.966;2023-03-26T13:20:48;98962.28;;;11.36;73.85
18022;BME280;9136;48.822;7.966;2023-03-26T13:23:48;98977.63;;;10.97;80.74
18022;BME280;9136;48.822;7.966;2023-03-26T13:39:30;99083.75;;;7.91;100.00
18022;BME280;9136;48.822;7.966;2023-03-26T13:42:33;99104.03;;;7.85;100.00
18022;BME280;9136;48.822;7.966;2023-03-26T13:45:38;99098.25;;;7.55;100.00
18022;BME280;9136;48.822;7.966;2023-03-26T13:48:32;99092.84;;;7.12;100.00
18022;BME280;9136;48.822;7.966;2023-03-26T13:51:25;99091.75;;;6.95;100.00
18022;BME280;9136;48.822;7.966;2023-03-26T13:54:19;99094.09;;;7.02;100.00
18022;BME280;9136;48.822;7.966;2023-03-26T13:57:17;99089.91;;;6.98;100.00
18022;BME280;9136;48.822;7.966;2023-03-26T14:00:12;99045.53;;;6.98;100.00
18022;BME280;9136;48.822;7.966;2023-03-26T14:03:08;99068.09;;;7.23;100.00
18022;BME280;9136;48.822;7.966;2023-03-26T14:05:58;99052.34;;;7.26;100.00
18022;BME280;9136;48.822;7.966;2023-03-26T14:08:51;99070.03;;;7.17;100.00
18022;BME280;9136;48.822;7.966;2023-03-26T14:11:50;99062.69;;;7.04;100.00
18022;BME280;9136;48.822;7.966;2023-03-26T14:14:47;99073.91;;;7.07;100.00
18022;BME280;9136;48.822;7.966;2023-03-26T14:17:38;99090.25;;;7.12;100.00
18022;BME280;9136;48.822;7.966;2023-03-26T14:20:55;99066.56;;;6.94;100.00
18022;BME280;9136;48.822;7.966;2023-03-26T14:24:04;99062.25;;;6.93;100.00
18022;BME280;9136;48.822;7.966;2023-03-26T14:27:14;99089.63;;;7.06;100.00
18022;BME280;9136;48.822;7.966;2023-03-26T14:30:30;99045.66;;;6.95;100.00
18022;BME280;9136;48.822;7.966;2023-03-26T14:33:36;99058.91;;;6.89;100.00
18022;BME280;9136;48.822;7.966;2023-03-26T14:36:48;99076.50;;;7.07;100.00
18022;BME280;9136;48.822;7.966;2023-03-26T14:39:53;99044.94;;;6.90;100.00
18022;BME280;9136;48.822;7.966;2023-03-26T14:42:52;99036.56;;;7.05;100.00
18022;BME280;9136;48.822;7.966;2023-03-26T14:45:54;99034.97;;;7.25;100.00
18022;BME280;9136;48.822;7.966;2023-03-26T14:49:05;99032.53;;;7.42;100.00
18022;BME280;9136;48.822;7.966;2023-03-26T14:52:04;99043.97;;;7.61;100.00
18022;BME280;9136;48.822;7.966;2023-03-26T14:55:01;99019.28;;;7.46;100.00
18022;BME280;9136;48.822;7.966;2023-03-26T15:01:22;99026.22;;;7.47;100.00
18022;BME280;9136;48.822;7.966;2023-03-26T15:07:50;99050.63;;;7.90;100.00
18022;BME280;9136;48.822;7.966;2023-03-26T15:11:15;99024.28;;;7.74;100.00
18022;BME280;9136;48.822;7.966;2023-03-26T15:18:11;99052.31;;;7.93;100.00
18022;BME280;9136;48.822;7.966;2023-03-26T15:21:35;99042.38;;;7.79;100.00
18022;BME280;9136;48.822;7.966;2023-03-26T15:28:15;99068.53;;;8.01;100.00
18022;BME280;9136;48.822;7.966;2023-03-26T15:31:40;99074.84;;;7.95;100.00
18022;BME280;9136;48.822;7.966;2023-03-26T15:38:17;99076.00;;;7.88;100.00
18022;BME280;9136;48.822;7.966;2023-03-26T15:41:15;99060.19;;;7.69;100.00
18022;BME280;9136;48.822;7.966;2023-03-26T15:44:21;99058.34;;;7.73;100.00
18022;BME280;9136;48.822;7.966;2023-03-26T15:47:38;99066.28;;;7.92;100.00
18022;BME280;9136;48.822;7.966;2023-03-26T15:50:38;99040.63;;;7.80;100.00
18022;BME280;9136;48.822;7.966;2023-03-26T15:53:35;99038.00;;;7.80;100.00
18022;BME280;9136;48.822;7.966;2023-03-26T15:56:40;99048.78;;;7.94;100.00
18022;BME280;9136;48.822;7.966;2023-03-26T15:59:46;99048.19;;;8.08;100.00
18022;BME280;9136;48.822;7.966;2023-03-26T16:02:42;99063.31;;;8.01;100.00
18022;BME280;9136;48.822;7.966;2023-03-26T16:05:54;99062.97;;;8.09;100.00
18022;BME280;9136;48.822;7.966;2023-03-26T16:08:51;99040.06;;;7.93;100.00
18022;BME280;9136;48.822;7.966;2023-03-26T16:11:47;99055.84;;;7.92;100.00
18022;BME280;9136;48.822;7.966;2023-03-26T16:14:41;99064.47;;;7.94;100.00
18022;BME280;9136;48.822;7.966;2023-03-26T16:18:08;99082.13;;;8.09;100.00
18022;BME280;9136;48.822;7.966;2023-03-26T16:21:35;99063.50;;;8.17;100.00
18022;BME280;9136;48.822;7.966;2023-03-26T16:24:30;99057.13;;;8.24;100.00
18022;BME280;9136;48.822;7.966;2023-03-26T16:27:28;99092.03;;;8.65;100.00
18022;BME280;9136;48.822;7.966;2023-03-26T16:30:28;99080.38;;;8.52;100.00
18022;BME280;9136;48.822;7.966;2023-03-26T16:33:18;99076.91;;;8.51;100.00
18022;BME280;9136;48.822;7.966;2023-03-26T16:36:21;99075.22;;;8.71;100.00
18022;BME280;9136;48.822;7.966;2023-03-26T16:39:38;99066.63;;;8.47;100.00
18022;BME280;9136;48.822;7.966;2023-03-26T16:42:31;99097.00;;;8.71;100.00
18022;BME280;9136;48.822;7.966;2023-03-26T16:45:28;99071.28;;;8.40;100.00